Αναφορές METAR Αεροδρομίων

 

LGTS - THESSALONIKI - GREECE
Ενημερώθηκε: 27/01/2023 03:20
Σχεδόν νεφελώδης
Σχεδόν νεφελώδης
 Ανεμος από ΑΒΑ
Ανεμος: ΑΒΑ 9 km/h
Θερμοκρασία: 6°C
Wind Chill: 4°C
Σημ. Δρόσου: 6°C
Υγρασία: 100%
Βαρόμετρο: 1007 hPa
Clouds: Σχεδόν νεφελώδης
Visibility: 10 km
Cloud details: Αραιές Νεφώσεις 244 m
Σχεδόν νεφελώδης 762 m
2023/01/27 01:20 LGTS 270120Z 07005KT 9999 FEW008 BKN025 06/06 Q1007 NOSIG
LGLR - LARTISA - GREECE
Ενημερώθηκε: 27/01/2023 03:50
Mist, Σχεδόν νεφελώδης
Mist, Σχεδόν νεφελώδης
 Ανεμος από ΝΑ
Ανεμος: ΝΑ 7 km/h
Θερμοκρασία: 3°C
Wind Chill: 1°C
Σημ. Δρόσου: 3°C
Υγρασία: 100%
Βαρόμετρο: 1007 hPa
Περίληψη: Mist
Clouds: Σχεδόν νεφελώδης
Visibility: 5 km
Cloud details: Αραιές Νεφώσεις 305 m
Σχεδόν νεφελώδης 762 m
Σχεδόν νεφελώδης 2134 m
2023/01/27 01:50 LGLR 270150Z 14004KT 5000 BR FEW010 BKN025 BKN070 03/03 Q1007 WHT
 
LGKZ - KOZANI - GREECE
Ενημερώθηκε: 27/01/2023 03:50

 Ανεμος από varies
Ανεμος: varies 4 km/h
Θερμοκρασία: 1°C
Σημ. Δρόσου: 1°C
Υγρασία: 100%
Βαρόμετρο: 1006 hPa
2023/01/27 01:50 LGKZ 270150Z AUTO VRB02KT //// // ////// 01/01 Q1006 RE//
LGKV - KAVALA - GREECE
Ενημερώθηκε: 26/01/2023 20:20
NOT Current
Βροχή, Συννεφιά
Βροχή, Συννεφιά
 Ανεμος από ΑΒΑ
Ανεμος: ΑΒΑ 9 km/h
Θερμοκρασία: 7°C
Wind Chill: 6°C
Σημ. Δρόσου: 6°C
Υγρασία: 93%
Βαρόμετρο: 1009 hPa
Περίληψη: Βροχή
Clouds: Συννεφιά
Visibility: 8 km
Cloud details: Αραιές Νεφώσεις 457 m
Σχεδόν νεφελώδης 762 m
Συννεφιά 2134 m
2023/01/26 18:20 LGKV 261820Z 06005KT 8000 RA FEW015 BKN025 OVC070 07/06 Q1009
 
LGIO - IOANNINA - GREECE
Ενημερώθηκε: 27/01/2023 03:50

 Ανεμος από varies
Ανεμος: varies 4 km/h
Θερμοκρασία: 2°C
Σημ. Δρόσου: 2°C
Υγρασία: 100%
Βαρόμετρο: 1004 hPa
2023/01/27 01:50 LGIO 270150Z AUTO VRB02KT //// // ////// 02/02 Q1004 RE//
LGBL - BOLOS - GREECE
Ενημερώθηκε: 27/01/2023 03:50
Σχεδόν νεφελώδης
Σχεδόν νεφελώδης
 Ανεμος από Δ
Ανεμος: Δ 13 km/h
Θερμοκρασία: 5°C
Wind Chill: 2°C
Σημ. Δρόσου: 4°C
Υγρασία: 93%
Βαρόμετρο: 1007 hPa
Clouds: Σχεδόν νεφελώδης
Visibility: 10 km
Cloud details: Αραιές Νεφώσεις 457 m
Μερικώς νεφελώδης 762 m
Σχεδόν νεφελώδης 2134 m
2023/01/27 01:50 LGBL 270150Z 27007KT 9999 FEW015 SCT025 BKN070 05/04 Q1007
 
LGMT - MITILINI - GREECE
Ενημερώθηκε: 26/01/2023 22:50
NOT Current
Thunderstorm rain, Σχεδόν νεφελώδης
Thunderstorm rain, Σχεδόν νεφελώδης
 Ανεμος από ΔΝΔ
Ανεμος: ΔΝΔ 31 km/h, Ριπή: 67 km/h
Θερμοκρασία: 15°C
Σημ. Δρόσου: 11°C
Υγρασία: 77%
Βαρόμετρο: 1008 hPa
Περίληψη: Thunderstorm Rain
Clouds: Σχεδόν νεφελώδης
Visibility: 8 km
Cloud details: Αραιές Νεφώσεις 488 m
Σχεδόν νεφελώδης 762 m
2023/01/26 20:50 LGMT 262050Z 24017G36KT 8000 TSRA FEW016CB BKN025 15/11 Q1008
LGAV - ATHENS - GREECE
Ενημερώθηκε: 27/01/2023 03:50
Μερικώς νεφελώδης
Μερικώς νεφελώδης
 Ανεμος από varies
Ανεμος: varies 4 km/h
Θερμοκρασία: 6°C
Σημ. Δρόσου: 5°C
Υγρασία: 93%
Βαρόμετρο: 1006 hPa
Clouds: Μερικώς νεφελώδης
Visibility: 10 km
Cloud details: Αραιές Νεφώσεις 549 m
Μερικώς νεφελώδης 762 m
2023/01/27 01:50 LGAV 270150Z VRB02KT 9999 FEW018 SCT025 06/05 Q1006 NOSIG
 
LGRP - RODOS - GREECE
Ενημερώθηκε: 27/01/2023 03:50
Σχεδόν νεφελώδης
Σχεδόν νεφελώδης
 Ανεμος από varies
Ανεμος: varies 22 km/h, Ριπή: 44 km/h
Θερμοκρασία: 17°C
Σημ. Δρόσου: 11°C
Υγρασία: 68%
Βαρόμετρο: 1009 hPa
Clouds: Σχεδόν νεφελώδης
Visibility: 10 km
Cloud details: Αραιές Νεφώσεις 305 m
Σχεδόν νεφελώδης 549 m
2023/01/27 01:50 LGRP 270150Z VRB12G24KT 9999 FEW010 BKN018 17/11 Q1009 WS ALL RWY NOSIG
LGIR - HRAKLIO/KRITI - GREECE
Ενημερώθηκε: 27/01/2023 03:50
Μερικώς νεφελώδης
Μερικώς νεφελώδης
 Ανεμος από ΒΔ
Ανεμος: ΒΔ 13 km/h
Θερμοκρασία: 12°C
Σημ. Δρόσου: 11°C
Υγρασία: 94%
Βαρόμετρο: 1007 hPa
Clouds: Μερικώς νεφελώδης
Visibility: 10 km
Cloud details: Μερικώς νεφελώδης 610 m
Μερικώς νεφελώδης 2438 m
2023/01/27 01:50 LGIR 270150Z 31007KT 9999 SCT020 SCT080 12/11 Q1007 NOSIG
 
LGMK - MIKONOS - GREECE
Ενημερώθηκε: 26/01/2023 19:50
NOT Current
Μερικώς νεφελώδης
Μερικώς νεφελώδης
 Ανεμος από ΝΝΑ
Ανεμος: ΝΝΑ 37 km/h, Ριπή: 56 km/h
Θερμοκρασία: 16°C
Σημ. Δρόσου: 10°C
Υγρασία: 68%
Βαρόμετρο: 1007 hPa
Clouds: Μερικώς νεφελώδης
Visibility: 10 km
Cloud details: Αραιές Νεφώσεις 366 m
Αραιές Νεφώσεις 549 m
Μερικώς νεφελώδης 762 m
2023/01/26 17:50 LGMK 261750Z 16020G30KT 9999 FEW012 FEW018TCU SCT025 16/10 Q1007
LGKR - KERKIRA - GREECE
Ενημερώθηκε: 27/01/2023 03:50
Nearby thunderstorm, Συννεφιά
Nearby thunderstorm, Συννεφιά
 Ανεμος από Α
Ανεμος: Α 13 km/h
Θερμοκρασία: 9°C
Wind Chill: 7°C
Σημ. Δρόσου: 8°C
Υγρασία: 94%
Βαρόμετρο: 1004 hPa
Περίληψη: Nearby Thunderstorm
Clouds: Συννεφιά
Visibility: 10 km
Cloud details: Μερικώς νεφελώδης 457 m
Αραιές Νεφώσεις 549 m
Μερικώς νεφελώδης 914 m
Συννεφιά 2438 m
2023/01/27 01:50 LGKR 270150Z 10007KT 9999 VCTS SCT015TCU FEW018CB SCT030 OVC080 09/08 Q1004 NOSIG